地図

経路データ

SID SEASON NUMBER BASIN SUBBASIN NAME ISO_TIME NATURE LAT LON WMO_WIND WMO_PRES WMO_AGENCY TRACK_TYPE DIST2LAND LANDFALL IFLAG USA_AGENCY USA_ATCF_ID USA_LAT USA_LON USA_RECORD USA_STATUS USA_WIND USA_PRES USA_SSHS USA_R34_NE USA_R34_SE USA_R34_SW USA_R34_NW USA_R50_NE USA_R50_SE USA_R50_SW USA_R50_NW USA_R64_NE USA_R64_SE USA_R64_SW USA_R64_NW USA_POCI USA_ROCI USA_RMW USA_EYE TOKYO_LAT TOKYO_LON TOKYO_GRADE TOKYO_WIND TOKYO_PRES TOKYO_R50_DIR TOKYO_R50_LONG TOKYO_R50_SHORT TOKYO_R30_DIR TOKYO_R30_LONG TOKYO_R30_SHORT TOKYO_LAND CMA_LAT CMA_LON CMA_CAT CMA_WIND CMA_PRES HKO_LAT HKO_LON HKO_CAT HKO_WIND HKO_PRES NEWDELHI_LAT NEWDELHI_LON NEWDELHI_GRADE NEWDELHI_WIND NEWDELHI_PRES NEWDELHI_CI NEWDELHI_DP NEWDELHI_POCI REUNION_LAT REUNION_LON REUNION_TYPE REUNION_WIND REUNION_PRES REUNION_TNUM REUNION_CI REUNION_RMW REUNION_R34_NE REUNION_R34_SE REUNION_R34_SW REUNION_R34_NW REUNION_R50_NE REUNION_R50_SE REUNION_R50_SW REUNION_R50_NW REUNION_R64_NE REUNION_R64_SE REUNION_R64_SW REUNION_R64_NW BOM_LAT BOM_LON BOM_TYPE BOM_WIND BOM_PRES BOM_TNUM BOM_CI BOM_RMW BOM_R34_NE BOM_R34_SE BOM_R34_SW BOM_R34_NW BOM_R50_NE BOM_R50_SE BOM_R50_SW BOM_R50_NW BOM_R64_NE BOM_R64_SE BOM_R64_SW BOM_R64_NW BOM_ROCI BOM_POCI BOM_EYE BOM_POS_METHOD BOM_PRES_METHOD NADI_LAT NADI_LON NADI_CAT NADI_WIND NADI_PRES WELLINGTON_LAT WELLINGTON_LON WELLINGTON_WIND WELLINGTON_PRES DS824_LAT DS824_LON DS824_STAGE DS824_WIND DS824_PRES TD9636_LAT TD9636_LON TD9636_STAGE TD9636_WIND TD9636_PRES TD9635_LAT TD9635_LON TD9635_WIND TD9635_PRES TD9635_ROCI NEUMANN_LAT NEUMANN_LON NEUMANN_CLASS NEUMANN_WIND NEUMANN_PRES MLC_LAT MLC_LON MLC_CLASS MLC_WIND MLC_PRES USA_GUST BOM_GUST BOM_GUST_PER REUNION_GUST REUNION_GUST_PER USA_SEAHGT USA_SEARAD_NE USA_SEARAD_SE USA_SEARAD_SW USA_SEARAD_NW STORM_SPEED STORM_DIR
1983079S13224 1983 15 SP MM SABA 1983-03-20 00:00:00 NR -12.6000 -136.200 30 997 wellington main 3898 3878 ________O_____ -1 -12.6000 -136.200 30 997 17 183
1983079S13224 1983 15 SP MM SABA 1983-03-20 03:00:00 NR -13.4360 -136.254 main 3878 3871 ________P_____ -1 -13.4360 -136.254 32 995 17 183
1983079S13224 1983 15 SP MM SABA 1983-03-20 06:00:00 NR -14.2577 -136.286 main 3870 3866 ________P_____ -1 -14.2577 -136.286 35 993 16 0
1983079S13224 1983 15 SP MM SABA 1983-03-20 09:00:00 NR -15.0505 -136.276 main 3866 3864 ________P_____ -1 -15.0505 -136.276 37 991 16 177
1983079S13224 1983 15 SP MM SABA 1983-03-20 12:00:00 NR -15.8000 -136.200 40 990 wellington main 3873 3873 ________O_____ -1 -15.8000 -136.200 40 990 15 171
1983079S13224 1983 15 SP MM SABA 1983-03-20 15:00:00 NR -16.4940 -136.045 main 3893 3893 ________P_____ -1 -16.4940 -136.045 42 988 14 165
1983079S13224 1983 15 SP MM SABA 1983-03-20 18:00:00 NR -17.1274 -135.826 main 3914 3914 ________P_____ -1 -17.1274 -135.826 45 987 13 159
1983079S13224 1983 15 SP MM SABA 1983-03-20 21:00:00 NR -17.6971 -135.569 main 3936 3936 ________P_____ -1 -17.6971 -135.569 47 986 12 155
1983079S13224 1983 15 SP MM SABA 1983-03-21 00:00:00 NR -18.2000 -135.300 50 985 wellington main 3969 3969 ________O_____ -1 -18.2000 -135.300 50 985 11 153
1983079S13224 1983 15 SP MM SABA 1983-03-21 03:00:00 NR -18.6477 -135.049 main 4002 4002 ________P_____ -1 -18.6477 -135.049 50 985 10 150
1983079S13224 1983 15 SP MM SABA 1983-03-21 06:00:00 NR -19.0324 -134.792 main 4025 4025 ________P_____ -1 -19.0324 -134.792 50 985 9 147
1983079S13224 1983 15 SP MM SABA 1983-03-21 09:00:00 NR -19.3759 -134.539 main 4058 4058 ________P_____ -1 -19.3759 -134.539 50 985 8 145
1983079S13224 1983 15 SP MM SABA 1983-03-21 12:00:00 NR -19.7000 -134.300 50 985 wellington main 4081 4081 ________O_____ -1 -19.7000 -134.300 50 985 8 148
1983079S13224 1983 15 SP MM SABA 1983-03-21 15:00:00 NR -20.0105 -134.113 main 4104 4104 ________P_____ -1 -20.0105 -134.113 50 985 7 151
1983079S13224 1983 15 SP MM SABA 1983-03-21 18:00:00 NR -20.3119 -133.935 main 4127 4127 ________P_____ -1 -20.3119 -133.935 50 985 7 151
1983079S13224 1983 15 SP MM SABA 1983-03-21 21:00:00 NR -20.6323 -133.741 main 4150 4150 ________P_____ -1 -20.6323 -133.741 50 985 8 149
1983079S13224 1983 15 SP MM SABA 1983-03-22 00:00:00 NR -21.0000 -133.500 50 985 wellington main 4174 4174 ________O_____ -1 -21.0000 -133.500 50 985 10 147
1983079S13224 1983 15 SP MM SABA 1983-03-22 03:00:00 NR -21.4499 -133.176 main 4209 4209 ________P_____ -1 -21.4499 -133.176 50 985 12 146
1983079S13224 1983 15 SP MM SABA 1983-03-22 06:00:00 NR -21.9478 -132.803 main 4255 4255 ________P_____ -1 -21.9478 -132.803 50 985 13 145
1983079S13224 1983 15 SP MM SABA 1983-03-22 09:00:00 NR -22.4718 -132.404 main 4303 4303 ________P_____ -1 -22.4718 -132.404 50 985 13 145
1983079S13224 1983 15 SP MM SABA 1983-03-22 12:00:00 NR -23.0000 -132.000 50 985 wellington main 4350 4350 ________O_____ -1 -23.0000 -132.000 50 985 13 146
1983079S13224 1983 15 SP MM SABA 1983-03-22 15:00:00 NR -23.5362 -131.625 main 4397 4397 ________P_____ -1 -23.5362 -131.625 47 986 13 147
1983079S13224 1983 15 SP MM SABA 1983-03-22 18:00:00 NR -24.0671 -131.250 main 4435 4435 ________P_____ -1 -24.0671 -131.250 45 987 12 146
1983079S13224 1983 15 SP MM SABA 1983-03-22 21:00:00 NR -24.5644 -130.875 main 4483 4483 ________P_____ -1 -24.5644 -130.875 42 988 12 144
1983079S13224 1983 15 SP MM SABA 1983-03-23 00:00:00 NR -25.0000 -130.500 40 990 wellington main 4529 4529 ________O_____ -1 -25.0000 -130.500 40 990 10 139
1983079S13224 1983 15 SP MM SABA 1983-03-23 03:00:00 NR -25.3475 -130.124 main 4573 4573 ________P_____ -1 -25.3475 -130.124 38 991 9 133
1983079S13224 1983 15 SP MM SABA 1983-03-23 06:00:00 NR -25.6320 -129.748 main 4618 4618 ________P_____ -1 -25.6320 -129.748 37 992 9 128
1983079S13224 1983 15 SP MM SABA 1983-03-23 09:00:00 NR -25.8756 -129.374 main 4652 4652 ________P_____ -1 -25.8756 -129.374 36 993 8 125
1983079S13224 1983 15 SP MM SABA 1983-03-23 12:00:00 NR -26.1000 -129.000 35 995 wellington main 4695 4695 ________O_____ -1 -26.1000 -129.000 35 995 8 126
1983079S13224 1983 15 SP MM SABA 1983-03-23 15:00:00 NR -26.3468 -128.645 main 4738 4738 ________P_____ -1 -26.3468 -128.645 33 995 8 127
1983079S13224 1983 15 SP MM SABA 1983-03-23 18:00:00 NR -26.5789 -128.287 main 4772 4772 ________P_____ -1 -26.5789 -128.287 32 996 8 124
1983079S13224 1983 15 SP MM SABA 1983-03-23 21:00:00 NR -26.7967 -127.910 main 4814 4814 ________P_____ -1 -26.7967 -127.910 31 996 8 121
1983079S13224 1983 15 SP MM SABA 1983-03-24 00:00:00 NR -27.0000 -127.500 30 997 wellington main 4826 4803 ________O_____ -1 -27.0000 -127.500 30 997 9 118
1983079S13224 1983 15 SP MM SABA 1983-03-24 03:00:00 NR -27.2057 -127.036 main 4795 4773 ________P_____ -1 -27.2057 -127.036 30 997 9 115
1983079S13224 1983 15 SP MM SABA 1983-03-24 06:00:00 NR -27.3950 -126.538 main 4765 4736 ________P_____ -1 -27.3950 -126.538 30 997 10 112
1983079S13224 1983 15 SP MM SABA 1983-03-24 09:00:00 NR -27.5618 -126.020 main 4736 4701 ________P_____ -1 -27.5618 -126.020 30 997 10 108
1983079S13224 1983 15 SP MM SABA 1983-03-24 12:00:00 NR -27.7000 -125.500 30 997 wellington main 4701 4666 ________O_____ -1 -27.7000 -125.500 30 997 9 105
1983079S13224 1983 15 SP MM SABA 1983-03-24 15:00:00 NR -27.8061 -124.989 main 4666 4632 ________P_____ -1 -27.8061 -124.989 30 997 9 102
1983079S13224 1983 15 SP MM SABA 1983-03-24 18:00:00 NR -27.8860 -124.487 main 4632 4592 ________P_____ -1 -27.8860 -124.487 30 997 9 99
1983079S13224 1983 15 SP MM SABA 1983-03-24 21:00:00 NR -27.9479 -123.992 main 4592 4559 ________P_____ -1 -27.9479 -123.992 30 997 9 97
1983079S13224 1983 15 SP MM SABA 1983-03-25 00:00:00 NR -28.0000 -123.500 30 997 wellington main 4559 ________O_____ -1 -28.0000 -123.500 30 997 9 97

デジタル台風データ・検索

IBTrACS Databaseについて

本データベースは、米国NOAAが公開する1842年以降の世界の熱帯低気圧のベストトラックデータアーカイブInternational Best Track Archive for Climate Stewardship (IBTrACS)を、ウェブで閲覧しやすい形式に変換したものです。

最終更新日:2021-12-03